Warspite, Canada
Current Conditions -  °F | °C
As of 10:00 PM on Saturday 22 Nov 2014 (Local Time) from CYED Reporting Station
Overcast Overcast  
Wind Chill:   Ceiling: 1900
Heat Index: 19°   Visibility: 9mi
Dew Point: 16°   Wind: 8mph
Humidity: 86%   Direction: 320°NW
Pressure: 29.62"   Gusts: NA
Location:  54.09°N, 112.62°W
Report Text: CYED 230500Z AUTO 32007KT 9SM OVC019 OVC074 M07/M09 A2962 RMKSLP066
Loading
Personal Weather Stations






























Interactive Weather Map New forecast layout! Learn more

10-Day Weather Forecast

Advertisements
Track Severe Weather on mobile